Ciudad Obregón International Airport

Jump to: basic info | weather | frequencies | runways | comments

Related pages: nearby airports | nearby navaids | notams | map

Basic information (top)

Codes: CEN MMCN
Location: lon 27.392599, lat -109.833000, elev 243 ft / 74 m msl
Status: medium_airport
Scheduled airline service: yes
Links: Wikipedia Mobile

Weather (top)

Current conditions (rec'd 2015/05/06 11:06Z):

MMCN 061106Z RTD 10003KT 8SM SKC 16/12 A2982 RMK HZY RTS

Airport forecast (rec'd 2015/04/10 22:03Z):

TAF COR TAF COR MMCN 102301Z 1022/1118 24010KT P6SM VC RA SCT025CB BKN100 OVC200 
      TEMPO 1022/1024 6SM TSRA BKN025CB 
     FM110200 00000KT P6SM SCT080 BKN250 
     FM111200 32005KT P6SM SCT250

Frequencies (top)

Verify before use: may be inaccurate or out of date.

APP: 121.3 MHz (APP)
ATIS: 127.6 MHz (ATIS)
TWR: 118.3 MHz (OBREGON TWR)

Runways (top)

13/31: 7,546 x 148 ft (2,300 x 45 m) — paved — lighted

Latest comments (top)

No comments yet for Ciudad Obregón International Airport

More... (top)

See also NOTAMs and nearby airports and navaids, or visit the Ciudad Obregón International Airport page at the main OurAirports website..